Hovedside
METAR-TAF:

METAR-TAF

Lufthavner :

Molde, Norge

Molde lufthavn

breddegrad: 62-45N, lengdegrad: 007-16E, høyde over havet: 0 m

Gjeldene værobservasjon

Denne rapporten ble laget for 20 minutter siden, klokken 22:20 UTC
Vind 10 kt fra Nord-nordøst
Temperatur 15°C
Luftfuktighet 88%
Trykk 1015 hPa
Sikt 10 km eller mer
ingen skyer under 1500 m og ingen bygeskyer

METAR: ENML 242220Z 02010KT CAVOK 15/13 Q1015

Tid: 00:40 (22:40 UTC)

Varsel

Denne rapporten ble laget for 5 timer og 40 minutter siden, klokken 17:00 UTC
Varsel gyldig fra 24. klokken 18 UTC til 24. klokken 22 UTC
Vind 10 kt fra Vest-sørvest
Sikt 10 km eller mer
Få skyer i en høyde av 2500 ft
Blir
fra 24. klokken 18 UTC til 24. klokken 20 UTC
Vind 5 kt fra skiftende retning

TAF: ENML 241700Z 2418/2422 24010KT 9999 FEW025 BECMG 2418/2420 VRB05KT

Værobservasjoner og værvarsel for over 4000 flyplasser (METAR- og TAF-rapporter).

Tilgjengelige stasjoner er representert av de røde og gule prikkene på kartet.

Hold musepekeren over prikken for å se navnet på stasjonen.

Klikk så for å se værobservasjoner og -varsler.

For å forandre kartet kan du klikke på den grønne knappen med svart kryss for å zoome inn, på den grønne knappen med strek for å zoome ut, eller på de grønne pilene for å se tilstøtende kart.


METAR-TAF: